createdAt,value
2023-07-17T00:00:16.629Z,2.47
2023-07-17T00:00:48.291Z,1.92
2023-07-17T00:01:19.969Z,2.63
2023-07-17T00:01:51.724Z,2.08
2023-07-17T00:02:23.499Z,1.90
2023-07-17T00:02:55.000Z,1.90
2023-07-17T00:03:26.618Z,2.60
2023-07-17T00:03:58.222Z,2.15
2023-07-17T00:04:30.161Z,2.47
2023-07-17T00:05:01.713Z,2.00
2023-07-17T00:05:33.102Z,2.05
2023-07-17T00:06:04.594Z,2.40
2023-07-17T00:06:36.297Z,2.10
2023-07-17T00:07:07.838Z,3.20
2023-07-17T00:07:41.466Z,2.17
2023-07-17T00:08:12.958Z,2.90
2023-07-17T00:08:44.421Z,2.65
2023-07-17T00:09:15.832Z,2.30
2023-07-17T00:09:47.851Z,1.75
2023-07-17T00:10:19.328Z,2.63
2023-07-17T00:10:50.948Z,1.80
2023-07-17T00:11:22.438Z,1.90
2023-07-17T00:11:53.836Z,1.98
2023-07-17T00:12:25.311Z,2.17
2023-07-17T00:12:56.803Z,2.00
2023-07-17T00:13:28.351Z,2.15
2023-07-17T00:13:59.951Z,2.10
2023-07-17T00:14:31.349Z,2.08
2023-07-17T00:15:06.228Z,1.40
2023-07-17T00:15:37.767Z,1.87
2023-07-17T00:16:09.214Z,2.10
2023-07-17T00:16:40.834Z,1.73
2023-07-17T00:17:12.401Z,2.03
2023-07-17T00:17:43.927Z,1.88
2023-07-17T00:18:15.691Z,1.98
2023-07-17T00:18:47.213Z,2.45
2023-07-17T00:19:18.623Z,2.20
2023-07-17T00:19:59.526Z,2.20
2023-07-17T00:21:20.464Z,1.53
2023-07-17T00:21:51.892Z,2.17
2023-07-17T00:22:24.268Z,2.47
2023-07-17T00:22:55.823Z,1.77
2023-07-17T00:23:27.778Z,2.58
2023-07-17T00:23:59.252Z,1.80
2023-07-17T00:24:30.683Z,1.70
2023-07-17T00:25:02.176Z,1.55
2023-07-17T00:25:33.728Z,2.00
2023-07-17T00:26:05.411Z,1.55
2023-07-17T00:26:36.911Z,2.00
2023-07-17T00:27:08.459Z,1.98
2023-07-17T00:27:39.992Z,1.80
2023-07-17T00:28:11.482Z,1.88
2023-07-17T00:28:42.967Z,1.73
2023-07-17T00:29:41.940Z,1.88
2023-07-17T00:30:13.461Z,2.55
2023-07-17T00:30:45.016Z,1.60
2023-07-17T00:31:16.835Z,2.08
2023-07-17T00:31:48.593Z,1.90
2023-07-17T00:32:21.174Z,2.10
2023-07-17T00:32:52.670Z,1.60
2023-07-17T00:33:24.151Z,1.70
2023-07-17T00:33:55.665Z,1.52
2023-07-17T00:34:27.731Z,1.60
2023-07-17T00:34:59.294Z,2.50
2023-07-17T00:35:30.773Z,1.95
2023-07-17T00:36:02.181Z,1.95
2023-07-17T00:36:33.569Z,1.60
2023-07-17T00:37:05.319Z,1.77
2023-07-17T00:37:36.839Z,1.93
2023-07-17T00:38:08.310Z,1.88
2023-07-17T00:38:39.714Z,2.53
2023-07-17T00:39:11.334Z,1.80
2023-07-17T00:39:42.790Z,2.03
2023-07-17T00:40:14.522Z,1.92
2023-07-17T00:40:46.116Z,2.75
2023-07-17T00:41:17.774Z,1.70
2023-07-17T00:41:51.470Z,1.88
2023-07-17T00:42:22.948Z,2.33
2023-07-17T00:43:01.667Z,1.63
2023-07-17T00:43:33.147Z,1.70
2023-07-17T00:44:04.633Z,1.90
2023-07-17T00:44:39.466Z,2.00
2023-07-17T00:45:11.153Z,1.88
2023-07-17T00:45:45.654Z,1.67
2023-07-17T00:46:19.753Z,3.13
2023-07-17T00:46:53.838Z,2.00
2023-07-17T00:47:25.930Z,2.28
2023-07-17T00:47:58.298Z,1.75
2023-07-17T00:48:30.366Z,1.80
2023-07-17T00:49:03.698Z,2.20
2023-07-17T00:49:35.447Z,2.15
2023-07-17T00:50:08.111Z,1.92
2023-07-17T00:50:40.010Z,1.63
2023-07-17T00:51:11.509Z,1.42
2023-07-17T00:51:44.435Z,1.98
2023-07-17T00:52:16.810Z,2.15
2023-07-17T00:52:48.290Z,2.05
2023-07-17T00:53:20.040Z,1.83
2023-07-17T00:53:51.669Z,2.03
2023-07-17T00:54:23.485Z,1.70
2023-07-17T00:54:55.093Z,1.98
2023-07-17T00:55:27.128Z,1.60
2023-07-17T00:56:01.494Z,2.08
2023-07-17T00:56:34.066Z,1.88
2023-07-17T00:57:06.269Z,1.50
2023-07-17T00:57:38.075Z,2.13
2023-07-17T00:58:09.822Z,2.08
2023-07-17T00:58:42.031Z,2.05
2023-07-17T00:59:14.691Z,1.70
2023-07-17T00:59:46.850Z,2.15
2023-07-17T01:00:19.999Z,1.75
2023-07-17T01:00:51.697Z,2.65
2023-07-17T01:01:23.987Z,2.10
2023-07-17T01:01:55.668Z,2.22
2023-07-17T01:02:27.250Z,1.83
2023-07-17T01:02:59.354Z,2.10
2023-07-17T01:03:31.706Z,2.20
2023-07-17T01:04:06.666Z,2.38
2023-07-17T01:04:38.127Z,2.03
2023-07-17T01:05:12.150Z,1.67
2023-07-17T01:05:43.563Z,2.10
2023-07-17T01:06:15.020Z,1.65
2023-07-17T01:06:46.708Z,2.72
2023-07-17T01:07:18.181Z,2.25
2023-07-17T01:07:49.795Z,2.13
2023-07-17T01:08:21.385Z,1.73
2023-07-17T01:08:52.859Z,1.88
2023-07-17T01:09:24.481Z,1.95
2023-07-17T01:09:56.042Z,2.53
2023-07-17T01:10:27.756Z,2.72
2023-07-17T01:10:59.217Z,2.40
2023-07-17T01:11:30.757Z,2.17
2023-07-17T01:12:02.245Z,1.85
2023-07-17T01:12:37.724Z,1.90
2023-07-17T01:13:12.564Z,1.77
2023-07-17T01:13:45.501Z,2.20
2023-07-17T01:14:18.385Z,2.35
2023-07-17T01:14:49.970Z,1.85
2023-07-17T01:15:21.529Z,1.97
2023-07-17T01:15:52.935Z,1.75
2023-07-17T01:16:24.431Z,2.40
2023-07-17T01:16:56.451Z,2.65
2023-07-17T01:17:27.985Z,2.00
2023-07-17T01:17:59.523Z,1.98
2023-07-17T01:18:30.979Z,2.53
2023-07-17T01:19:02.457Z,2.55
2023-07-17T01:19:33.953Z,2.03
2023-07-17T01:20:06.854Z,2.10
2023-07-17T01:20:38.279Z,1.53
2023-07-17T01:21:12.438Z,1.60
2023-07-17T01:22:00.991Z,2.30
2023-07-17T01:22:59.300Z,1.83
2023-07-17T01:23:30.927Z,1.40
2023-07-17T01:24:02.432Z,2.03
2023-07-17T01:24:35.048Z,1.63
2023-07-17T01:25:07.119Z,1.77
2023-07-17T01:25:38.568Z,2.10
2023-07-17T01:26:14.798Z,1.70
2023-07-17T01:26:46.502Z,1.93
2023-07-17T01:27:19.269Z,2.85
2023-07-17T01:27:50.954Z,1.70
2023-07-17T01:28:22.398Z,1.95
2023-07-17T01:28:53.843Z,1.60
2023-07-17T01:29:25.331Z,2.08
2023-07-17T01:29:56.888Z,1.30
2023-07-17T01:30:28.394Z,2.05
2023-07-17T01:30:59.976Z,1.75
2023-07-17T01:31:31.932Z,2.15
2023-07-17T01:32:03.659Z,1.33
2023-07-17T01:32:35.202Z,2.00
2023-07-17T01:33:06.757Z,1.80
2023-07-17T01:33:39.071Z,2.28
2023-07-17T01:34:11.166Z,2.15
2023-07-17T01:34:42.749Z,1.75
2023-07-17T01:35:14.307Z,1.55
2023-07-17T01:35:45.846Z,1.52
2023-07-17T01:36:17.325Z,2.15
2023-07-17T01:36:48.830Z,1.85
2023-07-17T01:37:20.261Z,1.30
2023-07-17T01:37:51.704Z,1.55
2023-07-17T01:38:23.160Z,1.50
2023-07-17T01:38:55.582Z,1.85
2023-07-17T01:39:27.130Z,1.90
2023-07-17T01:39:58.683Z,1.70
2023-07-17T01:40:30.117Z,1.55
2023-07-17T01:41:01.969Z,1.67
2023-07-17T01:41:33.675Z,1.80
2023-07-17T01:42:05.535Z,1.50
2023-07-17T01:42:37.535Z,1.30
2023-07-17T01:43:09.080Z,1.52
2023-07-17T01:43:40.539Z,1.80
2023-07-17T01:44:12.881Z,1.80
2023-07-17T01:44:44.347Z,1.80
2023-07-17T01:45:15.940Z,1.98
2023-07-17T01:45:47.413Z,1.70
2023-07-17T01:46:19.251Z,1.88
2023-07-17T01:46:50.923Z,1.85
2023-07-17T01:47:24.966Z,1.40
2023-07-17T01:47:56.801Z,1.80
2023-07-17T01:48:28.386Z,1.73
2023-07-17T01:48:59.940Z,2.13
2023-07-17T01:49:31.438Z,1.70
2023-07-17T01:50:03.857Z,2.08
2023-07-17T01:50:35.300Z,1.60
2023-07-17T01:51:06.770Z,1.45
2023-07-17T01:51:38.220Z,1.67
2023-07-17T01:52:11.432Z,2.20
2023-07-17T01:52:42.914Z,2.25
2023-07-17T01:53:21.706Z,1.80
2023-07-17T01:53:53.192Z,1.58
2023-07-17T01:54:24.665Z,1.50
2023-07-17T01:54:56.228Z,2.15
2023-07-17T01:55:27.744Z,2.13
2023-07-17T01:56:00.945Z,1.60
2023-07-17T01:56:32.487Z,1.50
2023-07-17T01:57:04.220Z,1.95
2023-07-17T01:57:35.669Z,1.85
2023-07-17T01:58:07.372Z,1.63
2023-07-17T01:58:38.905Z,1.63
2023-07-17T01:59:10.397Z,1.35
2023-07-17T01:59:41.877Z,1.60
2023-07-17T02:00:14.044Z,1.70
2023-07-17T02:00:46.235Z,1.77
2023-07-17T02:01:18.025Z,2.15
2023-07-17T02:01:50.024Z,1.77
2023-07-17T02:02:21.553Z,1.55
2023-07-17T02:02:53.041Z,1.73
2023-07-17T02:03:24.701Z,1.85
2023-07-17T02:03:56.163Z,1.90
2023-07-17T02:04:27.868Z,1.63
2023-07-17T02:04:59.480Z,2.00
2023-07-17T02:05:32.126Z,2.22
2023-07-17T02:06:03.751Z,1.55
2023-07-17T02:06:35.283Z,1.60
2023-07-17T02:07:06.895Z,1.17
2023-07-17T02:07:38.338Z,1.92
2023-07-17T02:08:09.825Z,1.90
2023-07-17T02:08:41.420Z,1.70
2023-07-17T02:09:13.333Z,1.37
2023-07-17T02:09:44.884Z,1.52
2023-07-17T02:10:16.413Z,1.75
2023-07-17T02:10:50.421Z,1.95
2023-07-17T02:11:22.212Z,1.80
2023-07-17T02:11:53.595Z,1.58
2023-07-17T02:12:25.101Z,1.60
2023-07-17T02:12:56.562Z,2.22
2023-07-17T02:13:28.318Z,1.83
2023-07-17T02:13:59.918Z,2.00
2023-07-17T02:14:31.644Z,1.77
2023-07-17T02:15:03.479Z,1.80
2023-07-17T02:15:35.148Z,1.73
2023-07-17T02:16:06.626Z,2.22
2023-07-17T02:16:38.148Z,2.00
2023-07-17T02:17:09.758Z,1.40
2023-07-17T02:17:41.581Z,1.60
2023-07-17T02:18:13.380Z,1.77
2023-07-17T02:18:45.707Z,1.67
2023-07-17T02:19:17.940Z,3.33
2023-07-17T02:19:49.502Z,1.47
2023-07-17T02:20:21.564Z,1.75
2023-07-17T02:20:53.136Z,1.92
2023-07-17T02:21:24.656Z,2.17
2023-07-17T02:21:56.111Z,1.95
2023-07-17T02:22:29.103Z,2.08
2023-07-17T02:23:00.648Z,1.75
2023-07-17T02:23:33.465Z,1.80
2023-07-17T02:24:05.658Z,1.50
2023-07-17T02:24:37.293Z,2.33
2023-07-17T02:25:09.100Z,1.73
2023-07-17T02:25:40.730Z,2.40
2023-07-17T02:26:12.584Z,1.73
2023-07-17T02:26:44.117Z,1.90
2023-07-17T02:27:15.638Z,2.00
2023-07-17T02:27:47.338Z,1.50
2023-07-17T02:28:18.858Z,1.48
2023-07-17T02:28:50.338Z,1.40
2023-07-17T02:29:21.880Z,1.52
2023-07-17T02:29:53.701Z,1.38
2023-07-17T02:30:25.176Z,1.67
2023-07-17T02:30:56.752Z,1.70
2023-07-17T02:31:28.510Z,1.90
2023-07-17T02:32:00.104Z,1.90
2023-07-17T02:32:32.034Z,2.20
2023-07-17T02:33:04.355Z,1.50
2023-07-17T02:33:35.876Z,1.42
2023-07-17T02:34:08.360Z,1.95
2023-07-17T02:34:40.054Z,1.67
2023-07-17T02:35:11.589Z,2.17
2023-07-17T02:35:43.084Z,2.13
2023-07-17T02:36:14.738Z,2.00
2023-07-17T02:36:46.301Z,1.95
2023-07-17T02:37:17.742Z,2.72
2023-07-17T02:37:49.209Z,1.77
2023-07-17T02:38:20.949Z,2.40
2023-07-17T02:38:52.372Z,2.03
2023-07-17T02:39:23.799Z,2.22
2023-07-17T02:39:55.322Z,1.88
2023-07-17T02:40:26.832Z,1.80
2023-07-17T02:40:58.416Z,1.77
2023-07-17T02:41:29.954Z,1.48
2023-07-17T02:42:01.637Z,1.98
2023-07-17T02:42:33.079Z,2.50
2023-07-17T02:43:06.224Z,2.00
2023-07-17T02:43:37.832Z,1.75
2023-07-17T02:44:09.792Z,2.03
2023-07-17T02:44:41.319Z,1.65
2023-07-17T02:45:12.909Z,2.25
2023-07-17T02:45:44.736Z,1.42
2023-07-17T02:46:16.277Z,2.27
2023-07-17T02:46:47.675Z,2.35
2023-07-17T02:47:19.385Z,1.65
2023-07-17T02:47:50.941Z,1.95
2023-07-17T02:48:22.514Z,1.98
2023-07-17T02:48:53.936Z,1.80
2023-07-17T02:49:25.401Z,2.08
2023-07-17T02:49:56.919Z,1.77
2023-07-17T02:50:28.493Z,1.67
2023-07-17T02:50:59.919Z,2.00
2023-07-17T02:51:31.354Z,2.37
2023-07-17T02:52:03.682Z,2.85
2023-07-17T02:52:36.456Z,2.42
2023-07-17T02:53:08.083Z,3.08
2023-07-17T02:53:39.756Z,1.92
2023-07-17T02:54:11.347Z,2.00
2023-07-17T02:54:42.898Z,1.88
2023-07-17T02:55:14.522Z,2.17
2023-07-17T02:55:46.344Z,2.28
2023-07-17T02:56:18.089Z,2.00
2023-07-17T02:56:49.576Z,1.93
2023-07-17T02:57:20.979Z,1.80
2023-07-17T02:57:52.469Z,1.73
2023-07-17T02:58:24.407Z,2.00
2023-07-17T02:58:55.995Z,2.20
2023-07-17T02:59:27.539Z,1.85
2023-07-17T02:59:59.031Z,2.13
2023-07-17T03:00:30.897Z,2.22
2023-07-17T03:01:02.409Z,2.13
2023-07-17T03:01:33.946Z,2.00
2023-07-17T03:02:06.842Z,1.80
2023-07-17T03:02:42.758Z,3.60
2023-07-17T03:03:14.256Z,1.65
2023-07-17T03:03:45.683Z,2.20
2023-07-17T03:04:17.438Z,2.25
2023-07-17T03:04:48.803Z,2.20
2023-07-17T03:05:20.350Z,1.85
2023-07-17T03:05:52.166Z,2.67
2023-07-17T03:06:23.949Z,2.28
2023-07-17T03:06:55.505Z,2.20
2023-07-17T03:07:26.977Z,2.43
2023-07-17T03:07:58.833Z,2.05
2023-07-17T03:08:30.401Z,1.90
2023-07-17T03:09:01.894Z,2.22
2023-07-17T03:09:33.321Z,2.22
2023-07-17T03:10:05.505Z,2.20
2023-07-17T03:10:36.970Z,2.33
2023-07-17T03:11:08.808Z,2.20
2023-07-17T03:11:40.294Z,2.80
2023-07-17T03:12:11.779Z,2.00
2023-07-17T03:12:43.221Z,2.53
2023-07-17T03:13:14.897Z,2.47
2023-07-17T03:13:46.445Z,1.83
2023-07-17T03:14:17.876Z,2.38
2023-07-17T03:14:49.463Z,2.40
2023-07-17T03:15:20.994Z,2.15
2023-07-17T03:15:52.807Z,2.38
2023-07-17T03:16:24.312Z,3.17
2023-07-17T03:16:55.772Z,2.22
2023-07-17T03:17:27.325Z,2.58
2023-07-17T03:17:58.856Z,2.20
2023-07-17T03:18:30.392Z,1.98
2023-07-17T03:19:01.964Z,2.35
2023-07-17T03:19:33.920Z,2.15
2023-07-17T03:20:07.298Z,3.22
2023-07-17T03:20:44.245Z,2.10
2023-07-17T03:21:15.837Z,1.90
2023-07-17T03:21:47.351Z,2.10
2023-07-17T03:22:19.252Z,2.20
2023-07-17T03:22:51.008Z,2.63
2023-07-17T03:23:22.865Z,3.10
2023-07-17T03:23:54.636Z,2.17
2023-07-17T03:24:26.207Z,2.45
2023-07-17T03:24:57.671Z,2.38
2023-07-17T03:25:29.189Z,2.17
2023-07-17T03:26:00.646Z,1.73
2023-07-17T03:26:32.333Z,2.40
2023-07-17T03:27:04.744Z,2.95
2023-07-17T03:27:36.385Z,2.28
2023-07-17T03:28:07.909Z,2.58
2023-07-17T03:28:39.470Z,2.00
2023-07-17T03:29:11.016Z,2.25
2023-07-17T03:29:42.523Z,2.67
2023-07-17T03:30:14.224Z,2.85
2023-07-17T03:30:45.730Z,2.40
2023-07-17T03:31:17.518Z,1.80
2023-07-17T03:31:49.201Z,2.13
2023-07-17T03:32:20.784Z,2.95
2023-07-17T03:32:52.269Z,2.80
2023-07-17T03:33:23.934Z,2.47
2023-07-17T03:33:55.633Z,2.67
2023-07-17T03:34:27.232Z,2.35
2023-07-17T03:34:58.730Z,2.17
2023-07-17T03:35:30.157Z,2.20
2023-07-17T03:36:01.864Z,2.15
2023-07-17T03:36:33.575Z,1.80
2023-07-17T03:37:05.383Z,2.53
2023-07-17T03:37:36.748Z,2.60
2023-07-17T03:38:08.413Z,2.65
2023-07-17T03:38:40.088Z,2.25
2023-07-17T03:39:11.613Z,2.03
2023-07-17T03:39:43.130Z,2.63
2023-07-17T03:40:14.699Z,2.80
2023-07-17T03:40:46.206Z,2.47
2023-07-17T03:41:21.464Z,2.42
2023-07-17T03:41:52.993Z,2.00
2023-07-17T03:42:24.497Z,2.00
2023-07-17T03:42:55.941Z,2.95
2023-07-17T03:43:27.442Z,2.45
2023-07-17T03:44:00.490Z,2.28
2023-07-17T03:44:31.928Z,2.67
2023-07-17T03:45:05.912Z,2.92
2023-07-17T03:45:37.378Z,2.38
2023-07-17T03:46:08.836Z,3.63
2023-07-17T03:46:40.494Z,3.97
2023-07-17T03:47:12.248Z,2.45
2023-07-17T03:47:44.750Z,2.42
2023-07-17T03:48:16.363Z,2.40
2023-07-17T03:48:47.866Z,2.50
2023-07-17T03:49:19.369Z,2.47
2023-07-17T03:49:51.052Z,2.70
2023-07-17T03:50:22.516Z,2.70
2023-07-17T03:50:54.007Z,2.50
2023-07-17T03:51:25.439Z,2.63
2023-07-17T03:51:59.622Z,2.75
2023-07-17T03:52:31.336Z,2.60
2023-07-17T03:53:02.936Z,2.70
2023-07-17T03:53:34.407Z,3.05
2023-07-17T03:54:05.861Z,2.95
2023-07-17T03:54:37.306Z,2.63
2023-07-17T03:55:08.995Z,2.50
2023-07-17T03:55:40.429Z,2.13
2023-07-17T03:56:11.879Z,2.67
2023-07-17T03:56:43.339Z,2.13
2023-07-17T03:57:15.102Z,2.38
2023-07-17T03:57:46.727Z,2.60
2023-07-17T03:58:18.553Z,2.03
2023-07-17T03:58:50.103Z,2.22
2023-07-17T03:59:25.720Z,2.85
2023-07-17T03:59:59.416Z,3.28
2023-07-17T04:00:31.189Z,2.30
2023-07-17T04:01:02.710Z,2.60
2023-07-17T04:01:34.285Z,2.42
2023-07-17T04:02:05.855Z,2.83
2023-07-17T04:02:37.302Z,3.15
2023-07-17T04:03:08.920Z,1.95
2023-07-17T04:03:40.598Z,2.20
2023-07-17T04:04:12.397Z,2.70
2023-07-17T04:04:44.073Z,2.55
2023-07-17T04:05:15.526Z,2.60
2023-07-17T04:05:48.758Z,2.63
2023-07-17T04:06:20.215Z,2.33
2023-07-17T04:06:51.690Z,2.85
2023-07-17T04:07:23.158Z,2.88
2023-07-17T04:07:54.700Z,2.70
2023-07-17T04:08:26.547Z,2.88
2023-07-17T04:08:58.551Z,2.10
2023-07-17T04:09:29.923Z,2.67
2023-07-17T04:10:01.415Z,2.50
2023-07-17T04:10:33.085Z,2.30
2023-07-17T04:11:05.130Z,2.40
2023-07-17T04:11:36.784Z,2.78
2023-07-17T04:12:08.605Z,2.53
2023-07-17T04:12:40.166Z,2.60
2023-07-17T04:13:11.609Z,3.03
2023-07-17T04:13:43.036Z,2.03
2023-07-17T04:14:14.606Z,2.42
2023-07-17T04:14:46.035Z,3.13
2023-07-17T04:15:17.470Z,2.28
2023-07-17T04:15:49.688Z,1.77
2023-07-17T04:16:22.194Z,2.50
2023-07-17T04:16:54.424Z,3.15
2023-07-17T04:17:25.880Z,2.42
2023-07-17T04:17:57.509Z,3.00
2023-07-17T04:18:28.964Z,2.92
2023-07-17T04:19:00.414Z,2.47
2023-07-17T04:19:32.058Z,2.67
2023-07-17T04:20:03.744Z,2.28
2023-07-17T04:20:39.380Z,2.40
2023-07-17T04:21:10.850Z,2.83
2023-07-17T04:21:42.343Z,2.93
2023-07-17T04:22:13.784Z,2.80
2023-07-17T04:22:45.284Z,2.60
2023-07-17T04:23:17.078Z,2.30
2023-07-17T04:23:52.043Z,2.70
2023-07-17T04:24:24.530Z,2.30
2023-07-17T04:24:56.059Z,2.97
2023-07-17T04:25:27.429Z,2.15
2023-07-17T04:25:58.844Z,2.45
2023-07-17T04:26:30.280Z,3.20
2023-07-17T04:27:01.718Z,2.70
2023-07-17T04:27:33.206Z,2.83
2023-07-17T04:28:05.067Z,2.15
2023-07-17T04:28:37.229Z,2.45
2023-07-17T04:29:09.291Z,2.50
2023-07-17T04:29:40.742Z,2.95
2023-07-17T04:30:12.894Z,2.75
2023-07-17T04:30:44.387Z,2.20
2023-07-17T04:31:16.113Z,3.47
2023-07-17T04:31:47.655Z,2.88
2023-07-17T04:32:19.071Z,2.67
2023-07-17T04:32:54.812Z,2.95
2023-07-17T04:33:27.453Z,3.13
2023-07-17T04:33:58.928Z,3.38
2023-07-17T04:34:31.975Z,2.85
2023-07-17T04:35:03.688Z,2.85
2023-07-17T04:35:38.754Z,2.53
2023-07-17T04:36:10.592Z,2.78
2023-07-17T04:36:42.407Z,2.95
2023-07-17T04:37:13.856Z,2.90
2023-07-17T04:37:45.267Z,3.03
2023-07-17T04:38:16.670Z,2.78
2023-07-17T04:38:48.129Z,3.28
2023-07-17T04:39:19.589Z,3.00
2023-07-17T04:39:51.025Z,3.50
2023-07-17T04:40:22.432Z,3.40
2023-07-17T04:40:53.931Z,3.08
2023-07-17T04:41:25.383Z,3.22
2023-07-17T04:41:57.484Z,3.95
2023-07-17T04:42:29.336Z,2.67
2023-07-17T04:43:01.504Z,3.03
2023-07-17T04:43:32.971Z,2.13
2023-07-17T04:44:04.674Z,2.85
2023-07-17T04:44:36.194Z,4.32
2023-07-17T04:45:08.560Z,3.20
2023-07-17T04:45:43.763Z,2.97
2023-07-17T04:46:15.401Z,2.40
2023-07-17T04:46:46.949Z,2.65
2023-07-17T04:47:18.371Z,4.07
2023-07-17T04:47:49.854Z,3.05
2023-07-17T04:48:21.360Z,3.17
2023-07-17T04:48:53.040Z,3.95
2023-07-17T04:49:24.531Z,2.70
2023-07-17T04:49:56.646Z,3.58
2023-07-17T04:50:28.157Z,2.95
2023-07-17T04:50:59.593Z,3.60
2023-07-17T04:51:31.802Z,3.50
2023-07-17T04:52:03.469Z,3.15
2023-07-17T04:52:34.899Z,3.17
2023-07-17T04:53:06.341Z,2.92
2023-07-17T04:53:37.894Z,3.20
2023-07-17T04:54:09.376Z,3.00
2023-07-17T04:54:40.787Z,3.28
2023-07-17T04:55:12.254Z,3.20
2023-07-17T04:55:44.443Z,3.65
2023-07-17T04:56:15.960Z,2.67
2023-07-17T04:56:47.530Z,3.15
2023-07-17T04:57:18.997Z,3.45
2023-07-17T04:57:50.499Z,3.88
2023-07-17T04:58:22.048Z,3.60
2023-07-17T04:58:54.581Z,2.83
2023-07-17T04:59:26.012Z,3.10
2023-07-17T04:59:59.861Z,2.80
2023-07-17T05:00:31.237Z,3.30
2023-07-17T05:01:05.204Z,3.78
2023-07-17T05:01:36.769Z,3.30
2023-07-17T05:02:08.385Z,3.28
2023-07-17T05:02:39.994Z,3.85
2023-07-17T05:03:11.630Z,4.35
2023-07-17T05:03:43.234Z,3.72
2023-07-17T05:04:14.821Z,3.43
2023-07-17T05:04:46.294Z,3.70
2023-07-17T05:05:18.405Z,3.28
2023-07-17T05:05:51.416Z,3.22
2023-07-17T05:06:22.803Z,3.15
2023-07-17T05:06:54.401Z,2.97
2023-07-17T05:07:25.813Z,3.30
2023-07-17T05:07:57.433Z,4.70
2023-07-17T05:08:28.938Z,3.60
2023-07-17T05:09:02.654Z,3.20
2023-07-17T05:09:34.558Z,3.03
2023-07-17T05:10:06.722Z,3.63
2023-07-17T05:10:38.213Z,3.55
2023-07-17T05:11:10.342Z,4.40
2023-07-17T05:11:43.088Z,3.20
2023-07-17T05:12:14.594Z,4.32
2023-07-17T05:12:46.119Z,4.10
2023-07-17T05:13:17.540Z,4.18
2023-07-17T05:13:48.984Z,4.07
2023-07-17T05:14:20.440Z,4.55
2023-07-17T05:14:51.859Z,3.80
2023-07-17T05:15:23.339Z,4.68
2023-07-17T05:15:55.204Z,3.33
2023-07-17T05:16:26.682Z,3.47
2023-07-17T05:17:01.061Z,4.22
2023-07-17T05:17:32.602Z,3.67
2023-07-17T05:18:04.381Z,3.80
2023-07-17T05:18:35.911Z,3.85
2023-07-17T05:19:07.388Z,4.03
2023-07-17T05:19:38.804Z,3.22
2023-07-17T05:20:10.800Z,3.70
2023-07-17T05:20:46.244Z,3.80
2023-07-17T05:21:18.894Z,3.38
2023-07-17T05:21:50.581Z,3.72
2023-07-17T05:22:22.193Z,4.10
2023-07-17T05:22:53.788Z,4.65
2023-07-17T05:23:25.883Z,3.63
2023-07-17T05:23:58.661Z,3.88
2023-07-17T05:24:30.241Z,3.97
2023-07-17T05:25:01.787Z,4.10
2023-07-17T05:25:33.290Z,3.47
2023-07-17T05:26:05.103Z,3.63
2023-07-17T05:26:36.866Z,4.00
2023-07-17T05:27:08.659Z,4.57
2023-07-17T05:27:40.169Z,4.32
2023-07-17T05:28:11.674Z,4.25
2023-07-17T05:28:43.341Z,4.18
2023-07-17T05:29:14.813Z,3.80
2023-07-17T05:29:46.311Z,3.75
2023-07-17T05:30:17.845Z,3.50
2023-07-17T05:30:53.347Z,4.17
2023-07-17T05:31:25.120Z,3.25
2023-07-17T05:31:57.289Z,4.00
2023-07-17T05:32:28.739Z,5.38
2023-07-17T05:33:00.914Z,4.28
2023-07-17T05:33:32.372Z,3.92
2023-07-17T05:34:04.243Z,3.90
2023-07-17T05:34:35.777Z,4.05
2023-07-17T05:35:07.675Z,3.53
2023-07-17T05:35:39.745Z,3.83
2023-07-17T05:36:11.270Z,4.13
2023-07-17T05:36:42.811Z,4.32
2023-07-17T05:37:14.471Z,4.72
2023-07-17T05:37:45.897Z,5.20
2023-07-17T05:38:17.324Z,5.22
2023-07-17T05:38:49.027Z,4.07
2023-07-17T05:39:20.605Z,4.80
2023-07-17T05:39:52.773Z,4.70
2023-07-17T05:40:24.391Z,4.30
2023-07-17T05:41:04.169Z,4.03
2023-07-17T05:41:35.655Z,4.73
2023-07-17T05:42:56.088Z,3.85
2023-07-17T05:43:27.717Z,4.72
2023-07-17T05:43:59.170Z,5.40
2023-07-17T05:44:30.613Z,5.70
2023-07-17T05:45:02.096Z,4.90
2023-07-17T05:45:33.590Z,4.88
2023-07-17T05:46:05.201Z,4.70
2023-07-17T05:46:36.727Z,5.20
2023-07-17T05:47:08.431Z,5.33
2023-07-17T05:47:39.903Z,4.80
2023-07-17T05:48:11.478Z,3.50
2023-07-17T05:48:42.996Z,4.97
2023-07-17T05:49:14.725Z,4.60
2023-07-17T05:49:46.274Z,4.65
2023-07-17T05:50:19.397Z,5.32
2023-07-17T05:50:51.366Z,4.78
2023-07-17T05:51:22.836Z,5.25
2023-07-17T05:51:54.374Z,4.40
2023-07-17T05:52:25.974Z,4.53
2023-07-17T05:52:59.059Z,4.70
2023-07-17T05:53:30.657Z,4.13
2023-07-17T05:54:02.112Z,4.95
2023-07-17T05:54:33.516Z,5.53
2023-07-17T05:55:05.461Z,4.55
2023-07-17T05:55:36.893Z,4.90
2023-07-17T05:56:08.314Z,5.38
2023-07-17T05:56:40.358Z,4.47
2023-07-17T05:57:11.888Z,4.60
2023-07-17T05:57:43.315Z,5.17
2023-07-17T05:58:14.840Z,5.43
2023-07-17T05:58:46.561Z,4.45
2023-07-17T05:59:18.151Z,4.70
2023-07-17T05:59:49.729Z,5.05
2023-07-17T06:00:21.698Z,5.28
2023-07-17T06:00:53.193Z,5.65
2023-07-17T06:01:24.701Z,5.28
2023-07-17T06:01:56.128Z,4.88
2023-07-17T06:02:27.672Z,5.30
2023-07-17T06:02:59.274Z,4.83
2023-07-17T06:03:30.740Z,5.03
2023-07-17T06:04:02.412Z,5.45
2023-07-17T06:04:34.022Z,5.57
2023-07-17T06:05:06.218Z,5.55
2023-07-17T06:05:39.327Z,4.53
2023-07-17T06:06:10.866Z,4.63
2023-07-17T06:06:42.290Z,5.78
2023-07-17T06:07:14.434Z,5.28
2023-07-17T06:07:45.941Z,5.07
2023-07-17T06:08:17.400Z,5.47
2023-07-17T06:08:48.897Z,5.28
2023-07-17T06:09:20.406Z,5.03
2023-07-17T06:09:51.886Z,5.00
2023-07-17T06:10:23.318Z,6.03
2023-07-17T06:10:54.749Z,5.70
2023-07-17T06:11:26.193Z,5.00
2023-07-17T06:11:58.325Z,5.63
2023-07-17T06:12:29.904Z,5.35
2023-07-17T06:13:01.480Z,5.80
2023-07-17T06:13:33.182Z,5.87
2023-07-17T06:14:04.767Z,5.45
2023-07-17T06:14:36.243Z,5.55
2023-07-17T06:15:08.174Z,6.05
2023-07-17T06:15:40.450Z,5.75
2023-07-17T06:16:11.955Z,6.50
2023-07-17T06:16:43.479Z,5.90
2023-07-17T06:17:15.005Z,5.95
2023-07-17T06:17:46.554Z,6.07
2023-07-17T06:18:18.115Z,6.25
2023-07-17T06:18:49.618Z,5.60
2023-07-17T06:19:21.289Z,5.82
2023-07-17T06:19:52.927Z,5.50
2023-07-17T06:20:24.642Z,6.35
2023-07-17T06:20:56.315Z,5.93
2023-07-17T06:21:27.849Z,5.88
2023-07-17T06:21:59.645Z,5.63
2023-07-17T06:22:31.308Z,6.03
2023-07-17T06:23:03.006Z,5.63
2023-07-17T06:23:34.483Z,5.70
2023-07-17T06:24:08.841Z,5.23
2023-07-17T06:24:40.443Z,6.28
2023-07-17T06:25:11.899Z,7.00
2023-07-17T06:25:43.631Z,5.88
2023-07-17T06:26:15.056Z,6.15
2023-07-17T06:26:47.077Z,5.53
2023-07-17T06:27:18.589Z,6.03
2023-07-17T06:27:49.998Z,6.40
2023-07-17T06:28:21.401Z,7.03
2023-07-17T06:28:53.109Z,6.28
2023-07-17T06:29:24.572Z,5.93
2023-07-17T06:29:56.099Z,6.20
2023-07-17T06:30:27.504Z,7.32
2023-07-17T06:30:59.882Z,6.88
2023-07-17T06:31:31.321Z,7.82
2023-07-17T06:32:02.874Z,6.20
2023-07-17T06:32:34.483Z,6.88
2023-07-17T06:33:05.994Z,6.93
2023-07-17T06:33:37.450Z,8.00
2023-07-17T06:34:08.870Z,5.95
2023-07-17T06:34:42.879Z,6.10
2023-07-17T06:35:14.443Z,6.78
2023-07-17T06:35:46.184Z,6.25
2023-07-17T06:36:17.721Z,6.80
2023-07-17T06:36:52.276Z,7.45
2023-07-17T06:37:23.909Z,6.47
2023-07-17T06:37:55.474Z,6.95
2023-07-17T06:38:26.897Z,6.63
2023-07-17T06:39:01.558Z,7.32
2023-07-17T06:39:34.042Z,7.22
2023-07-17T06:40:06.532Z,8.13
2023-07-17T06:40:39.227Z,6.32
2023-07-17T06:41:11.298Z,6.80
2023-07-17T06:41:42.864Z,6.80
2023-07-17T06:42:14.351Z,6.38
2023-07-17T06:42:45.780Z,7.40
2023-07-17T06:43:17.204Z,6.53
2023-07-17T06:43:48.777Z,6.30
2023-07-17T06:44:20.289Z,7.07
2023-07-17T06:44:51.707Z,6.88
2023-07-17T06:45:23.250Z,7.53
2023-07-17T06:45:54.750Z,7.32
2023-07-17T06:46:26.180Z,6.60
2023-07-17T06:46:57.585Z,6.28
2023-07-17T06:47:36.772Z,7.47
2023-07-17T06:48:09.346Z,7.40
2023-07-17T06:48:42.150Z,6.82
2023-07-17T06:49:13.589Z,6.82
2023-07-17T06:49:44.994Z,7.32
2023-07-17T06:50:16.523Z,7.63
2023-07-17T06:50:47.997Z,6.50
2023-07-17T06:51:19.449Z,6.28
2023-07-17T06:51:50.927Z,6.22
2023-07-17T06:52:22.441Z,7.15
2023-07-17T06:52:53.955Z,7.13
2023-07-17T06:53:25.507Z,5.90
2023-07-17T06:53:56.957Z,7.07
2023-07-17T06:54:28.424Z,6.10
2023-07-17T06:55:04.757Z,6.47
2023-07-17T06:55:36.617Z,7.65
2023-07-17T06:56:08.108Z,6.50
2023-07-17T06:56:39.551Z,7.15
2023-07-17T06:57:11.009Z,5.95
2023-07-17T06:57:42.506Z,6.97
2023-07-17T06:58:14.130Z,6.60
2023-07-17T06:58:45.621Z,6.80
2023-07-17T06:59:18.662Z,7.07
2023-07-17T06:59:50.214Z,7.32
2023-07-17T07:00:21.793Z,7.50
2023-07-17T07:01:00.564Z,7.28
2023-07-17T07:01:32.176Z,6.50
2023-07-17T07:02:04.028Z,7.18
2023-07-17T07:02:35.686Z,5.93
2023-07-17T07:03:09.042Z,7.63
2023-07-17T07:03:40.535Z,6.47
2023-07-17T07:04:12.099Z,6.60
2023-07-17T07:04:43.568Z,6.90
2023-07-17T07:05:15.009Z,6.97
2023-07-17T07:06:03.031Z,7.18
2023-07-17T07:06:34.530Z,6.40
2023-07-17T07:07:06.527Z,6.87
2023-07-17T07:07:38.052Z,6.72